Time;durP1;ratioP1;P1;durP2;ratioP2;P2;SDS_P1;SDS_P2;PMS_P1;PMS_P2;Temp;Humidity;BMP_temperature;BMP_pressure;BME280_temperature;BME280_humidity;BME280_pressure;Samples;Min_cycle;Max_cycle;Signal;HPM_P1;HPM_P2
2021/08/22 00:00:43;;;;;;;;;;;;;;;22.80;69.13;96857.92;219176;265;98939;-58
2021/08/22 00:01:44;;;;;;;;;;;;;;;22.79;69.16;96860.45;218945;265;98938;-58
2021/08/22 00:02:46;;;;;;;;;;;;;;;22.78;69.24;96858.84;219160;265;99053;-54
2021/08/22 00:03:47;;;;;;;;;;;;;;;22.79;69.29;96852.97;219032;264;98935;-56
2021/08/22 00:04:48;;;;;;;;;;;;;;;22.79;69.32;96861.26;218807;265;97985;-56
2021/08/22 00:05:50;;;;;;;;;;;;;;;22.84;69.35;96862.20;218602;265;98186;-55
2021/08/22 00:06:51;;;;;;;;;;;;;;;22.80;69.28;96860.68;218967;265;98859;-57
2021/08/22 00:07:52;;;;;;;;;;;;;;;22.81;69.33;96860.33;219180;265;98862;-56
2021/08/22 00:08:54;;;;;;;;;;;;;;;22.80;69.44;96855.16;220175;263;98854;-55
2021/08/22 00:09:55;;;;;;;;;;;;;;;22.84;69.25;96863.00;219866;263;99416;-54
2021/08/22 00:10:56;;;;;;;;;;;;;;;22.80;69.23;96859.30;218739;264;97990;-60
2021/08/22 00:11:58;;;;;;;;;;;;;;;22.79;69.24;96854.92;217726;265;98091;-52
2021/08/22 00:12:59;;;;;;;;;;;;;;;22.81;69.37;96856.77;218297;265;99127;-53
2021/08/22 00:14:00;;;;;;;;;;;;;;;22.83;69.34;96851.69;218150;265;98939;-58
2021/08/22 00:15:02;;;;;;;;;;;;;;;22.83;69.47;96855.84;218290;265;98851;-54
2021/08/22 00:16:03;;;;;;;;;;;;;;;22.83;69.32;96854.45;218570;264;98930;-56
2021/08/22 00:17:04;;;;;;;;;;;;;;;22.85;69.27;96856.90;219581;264;97986;-56
2021/08/22 00:18:06;;;;;;;;;;;;;;;22.85;69.39;96864.61;219264;264;97947;-58
2021/08/22 00:19:07;;;;;;;;;;;;;;;22.84;69.30;96856.09;219256;264;98011;-52
2021/08/22 00:20:08;;;;;;;;;;;;;;;22.81;69.37;96854.80;218613;264;97070;-55
2021/08/22 00:21:10;;;;;;;;;;;;;;;22.85;69.22;96856.32;217523;266;98922;-55
2021/08/22 00:22:11;;;;;;;;;;;;;;;22.84;69.21;96856.09;218815;266;98924;-51
2021/08/22 00:23:12;;;;;;;;;;;;;;;22.87;69.27;96857.38;218836;264;97991;-56
2021/08/22 00:24:14;;;;;;;;;;;;;;;22.83;69.32;96863.32;219377;264;97951;-53
2021/08/22 00:25:15;;;;;;;;;;;;;;;22.85;69.32;96859.08;219344;264;97940;-51
2021/08/22 00:26:16;;;;;;;;;;;;;;;22.84;69.34;96860.23;219263;264;100260;-55
2021/08/22 00:27:18;;;;;;;;;;;;;;;22.82;69.37;96861.14;219474;264;98857;-54
2021/08/22 00:28:19;;;;;;;;;;;;;;;22.83;69.31;96859.17;218770;264;98857;-51
2021/08/22 00:29:20;;;;;;;;;;;;;;;22.86;69.30;96863.45;218303;265;97986;-52
2021/08/22 00:30:22;;;;;;;;;;;;;;;22.83;69.69;96860.56;218149;265;97976;-57
2021/08/22 00:31:23;;;;;;;;;;;;;;;22.81;69.37;96859.53;219016;264;98017;-57
2021/08/22 00:32:24;;;;;;;;;;;;;;;22.83;69.34;96862.75;219362;264;97064;-56
2021/08/22 00:33:26;;;;;;;;;;;;;;;22.85;69.31;96861.84;219157;264;98979;-52
2021/08/22 00:34:27;;;;;;;;;;;;;;;22.83;69.43;96860.56;218129;265;98851;-50
2021/08/22 00:35:29;;;;;;;;;;;;;;;22.81;69.44;96857.56;218554;264;98938;-55
2021/08/22 00:36:30;;;;;;;;;;;;;;;22.81;69.37;96860.91;219569;264;97973;-52
2021/08/22 00:37:31;;;;;;;;;;;;;;;22.85;69.41;96856.32;219264;264;98012;-54
2021/08/22 00:38:33;;;;;;;;;;;;;;;22.81;69.37;96849.86;218648;264;98017;-53
2021/08/22 00:39:35;;;;;;;;;;;;;;;22.83;69.29;96848.13;219315;263;195690;-56
2021/08/22 00:40:36;;;;;;;;;;;;;;;22.80;69.69;96839.38;218732;264;194117;-52
2021/08/22 00:41:40;;;;;;;;;;;;;;;22.81;69.35;96846.52;219582;264;98927;-52
2021/08/22 00:42:42;;;;;;;;;;;;;;;22.82;69.36;96847.32;219310;264;98946;-59
2021/08/22 00:43:45;;;;;;;;;;;;;;;22.85;69.19;96845.27;220447;263;66901;-57
2021/08/22 00:44:46;;;;;;;;;;;;;;;22.87;69.14;96844.37;218188;266;98975;-57
2021/08/22 00:45:47;;;;;;;;;;;;;;;22.84;69.30;96846.42;218378;265;98948;-57
2021/08/22 00:46:49;;;;;;;;;;;;;;;22.88;69.07;96844.59;219084;265;98950;-57
2021/08/22 00:47:50;;;;;;;;;;;;;;;22.85;69.10;96840.31;219265;265;98964;-53
2021/08/22 00:48:52;;;;;;;;;;;;;;;22.83;69.22;96838.45;219970;263;98947;-55
2021/08/22 00:49:53;;;;;;;;;;;;;;;22.83;69.28;96835.11;219931;263;193324;-58
2021/08/22 00:50:54;;;;;;;;;;;;;;;22.83;69.35;96834.30;219095;264;98918;-53
2021/08/22 00:51:56;;;;;;;;;;;;;;;22.86;69.31;96833.64;218867;265;99037;-54
2021/08/22 00:52:57;;;;;;;;;;;;;;;22.84;69.34;96828.46;219198;264;98014;-54
2021/08/22 00:53:59;;;;;;;;;;;;;;;22.84;69.25;96833.18;219187;264;99057;-56
2021/08/22 00:55:00;;;;;;;;;;;;;;;22.83;69.20;96830.97;219840;264;98927;-56
2021/08/22 00:56:04;;;;;;;;;;;;;;;22.82;69.29;96827.98;219297;264;98773;-60
2021/08/22 00:57:04;;;;;;;;;;;;;;;22.81;69.40;96826.37;220599;263;162764;-52
2021/08/22 00:58:06;;;;;;;;;;;;;;;22.83;69.16;96824.06;219549;264;99145;-60
2021/08/22 00:59:07;;;;;;;;;;;;;;;22.84;69.47;96827.08;219280;264;98962;-53
2021/08/22 01:00:09;;;;;;;;;;;;;;;22.84;69.27;96824.31;218972;264;98958;-53
2021/08/22 01:01:10;;;;;;;;;;;;;;;22.86;69.23;96823.39;218618;264;98922;-58
2021/08/22 01:02:11;;;;;;;;;;;;;;;22.85;69.25;96821.78;218685;264;98988;-58
2021/08/22 01:03:13;;;;;;;;;;;;;;;22.87;69.17;96825.60;219528;264;99015;-55
2021/08/22 01:04:17;;;;;;;;;;;;;;;22.86;69.17;96815.09;219507;264;193848;-55
2021/08/22 01:05:18;;;;;;;;;;;;;;;22.87;69.19;96813.97;218915;264;98946;-55
2021/08/22 01:06:19;;;;;;;;;;;;;;;22.86;69.22;96817.86;219628;264;97945;-52
2021/08/22 01:07:22;;;;;;;;;;;;;;;22.90;69.17;96806.36;219708;264;98081;-54
2021/08/22 01:08:24;;;;;;;;;;;;;;;22.87;69.25;96812.59;219242;264;155484;-55
2021/08/22 01:09:25;;;;;;;;;;;;;;;22.88;69.22;96807.29;220160;263;274992;-55
2021/08/22 01:10:27;;;;;;;;;;;;;;;22.89;69.18;96807.52;219087;264;197534;-55
2021/08/22 01:11:28;;;;;;;;;;;;;;;22.90;69.29;96796.69;218997;265;193978;-51
2021/08/22 01:12:30;;;;;;;;;;;;;;;22.90;69.21;96800.83;219421;264;98855;-51
2021/08/22 01:13:31;;;;;;;;;;;;;;;22.88;69.24;96796.23;219072;265;98921;-55
2021/08/22 01:14:32;;;;;;;;;;;;;;;22.88;69.28;96797.62;219345;264;98853;-55
2021/08/22 01:15:34;;;;;;;;;;;;;;;22.89;69.20;96794.28;219119;264;98973;-49
2021/08/22 01:16:35;;;;;;;;;;;;;;;22.92;69.06;96795.75;219340;265;99462;-52
2021/08/22 01:17:36;;;;;;;;;;;;;;;22.91;69.20;96794.16;219516;264;98930;-50
2021/08/22 01:18:38;;;;;;;;;;;;;;;22.91;69.09;96793.34;219120;264;98979;-51
2021/08/22 01:19:39;;;;;;;;;;;;;;;22.91;69.15;96787.81;219224;264;97991;-51
2021/08/22 01:20:40;;;;;;;;;;;;;;;22.92;69.10;96794.38;219470;263;98935;-60
2021/08/22 01:21:42;;;;;;;;;;;;;;;22.93;68.98;96791.84;220376;263;98980;-59
2021/08/22 01:22:43;;;;;;;;;;;;;;;22.91;69.12;96788.62;218072;266;98939;-52
2021/08/22 01:23:44;;;;;;;;;;;;;;;22.91;69.06;96785.86;219793;263;98864;-54
2021/08/22 01:24:46;;;;;;;;;;;;;;;22.91;69.20;96785.86;218286;265;98983;-56
2021/08/22 01:25:47;;;;;;;;;;;;;;;22.90;69.08;96781.48;219591;263;97943;-54
2021/08/22 01:26:48;;;;;;;;;;;;;;;22.90;69.13;96783.45;219800;264;97963;-55
2021/08/22 01:27:50;;;;;;;;;;;;;;;22.91;69.11;96785.86;219343;264;99008;-56
2021/08/22 01:28:51;;;;;;;;;;;;;;;22.90;69.17;96784.83;219852;264;98930;-53
2021/08/22 01:29:53;;;;;;;;;;;;;;;22.90;69.13;96786.21;219167;264;98926;-58
2021/08/22 01:30:54;;;;;;;;;;;;;;;22.93;68.99;96789.66;219537;264;98858;-56
2021/08/22 01:31:59;;;;;;;;;;;;;;;22.90;69.07;96788.40;218646;264;98934;-57
2021/08/22 01:32:58;;;;;;;;;;;;;;;22.89;69.09;96784.61;219435;264;162606;-50
2021/08/22 01:34:00;;;;;;;;;;;;;;;22.90;69.05;96786.21;217057;266;98988;-56
2021/08/22 01:35:01;;;;;;;;;;;;;;;22.93;68.96;96786.31;218434;265;98941;-52
2021/08/22 01:36:02;;;;;;;;;;;;;;;22.89;69.00;96790.94;218901;265;98942;-59
2021/08/22 01:37:04;;;;;;;;;;;;;;;22.92;68.93;96787.47;218820;264;98989;-55
2021/08/22 01:38:05;;;;;;;;;;;;;;;22.91;69.01;96790.58;218959;265;98873;-56
2021/08/22 01:39:06;;;;;;;;;;;;;;;22.92;69.01;96794.38;219057;265;98940;-50
2021/08/22 01:40:10;;;;;;;;;;;;;;;22.92;68.99;96789.42;219239;263;193461;-53
2021/08/22 01:41:11;;;;;;;;;;;;;;;22.92;69.03;96787.47;218828;264;98961;-51
2021/08/22 01:42:12;;;;;;;;;;;;;;;22.89;69.16;96785.41;219520;264;97994;-54
2021/08/22 01:43:14;;;;;;;;;;;;;;;22.89;69.24;96786.79;219483;264;99108;-55
2021/08/22 01:44:16;;;;;;;;;;;;;;;22.89;69.15;96783.22;219274;264;96646;-56
2021/08/22 01:45:17;;;;;;;;;;;;;;;22.87;69.19;96787.72;219490;264;98990;-56
2021/08/22 01:46:18;;;;;;;;;;;;;;;22.89;69.19;96784.61;219326;264;98939;-55
2021/08/22 01:47:19;;;;;;;;;;;;;;;22.94;69.08;96787.11;219205;264;194067;-54
2021/08/22 01:48:21;;;;;;;;;;;;;;;22.90;69.33;96789.78;219460;264;97958;-57
2021/08/22 01:49:22;;;;;;;;;;;;;;;22.91;69.23;96785.86;218940;264;99454;-55
2021/08/22 01:50:24;;;;;;;;;;;;;;;22.92;69.22;96787.47;219456;263;99041;-55
2021/08/22 01:51:25;;;;;;;;;;;;;;;22.92;69.26;96784.70;220063;263;100208;-56
2021/08/22 01:52:26;;;;;;;;;;;;;;;22.91;69.12;96780.33;217880;266;98943;-51
2021/08/22 01:53:28;;;;;;;;;;;;;;;22.92;69.14;96784.70;217814;266;99037;-54
2021/08/22 01:54:29;;;;;;;;;;;;;;;22.91;69.27;96783.09;218589;264;97920;-56
2021/08/22 01:55:30;;;;;;;;;;;;;;;22.94;69.20;96786.53;219863;264;97959;-55
2021/08/22 01:56:32;;;;;;;;;;;;;;;22.91;69.24;96788.62;219504;264;99084;-55
2021/08/22 01:57:33;;;;;;;;;;;;;;;22.89;69.19;96786.79;218449;265;98779;-51
2021/08/22 01:58:34;;;;;;;;;;;;;;;22.90;69.35;96787.02;217277;267;98964;-50
2021/08/22 01:59:36;;;;;;;;;;;;;;;22.91;69.36;96788.62;219068;264;98962;-52
2021/08/22 02:00:37;;;;;;;;;;;;;;;22.92;69.38;96791.61;218708;264;97984;-48
2021/08/22 02:01:38;;;;;;;;;;;;;;;22.94;69.39;96791.27;219521;264;98011;-53
2021/08/22 02:02:40;;;;;;;;;;;;;;;22.91;69.35;96794.73;219165;264;98092;-52
2021/08/22 02:03:41;;;;;;;;;;;;;;;22.90;69.26;96791.73;218984;264;98927;-53
2021/08/22 02:04:42;;;;;;;;;;;;;;;22.93;69.17;96798.75;219118;264;99498;-54
2021/08/22 02:05:44;;;;;;;;;;;;;;;22.93;69.49;96795.98;218835;264;99038;-55
2021/08/22 02:06:47;;;;;;;;;;;;;;;22.92;69.31;96790.81;219428;264;97663;-56
2021/08/22 02:07:48;;;;;;;;;;;;;;;22.89;69.40;96795.08;219799;263;165926;-56
2021/08/22 02:08:51;;;;;;;;;;;;;;;22.95;69.25;96797.02;220176;263;159474;-58
2021/08/22 02:09:52;;;;;;;;;;;;;;;22.92;69.32;96790.81;218628;264;99457;-51
2021/08/22 02:10:54;;;;;;;;;;;;;;;22.93;69.34;96792.41;218962;265;99084;-53
2021/08/22 02:11:55;;;;;;;;;;;;;;;22.92;69.32;96792.19;219278;265;100225;-50
2021/08/22 02:12:56;;;;;;;;;;;;;;;22.94;69.45;96786.53;218700;265;99458;-54
2021/08/22 02:13:58;;;;;;;;;;;;;;;22.94;69.41;96789.88;219365;264;99044;-52
2021/08/22 02:14:59;;;;;;;;;;;;;;;22.97;69.10;96787.25;218943;264;98945;-57
2021/08/22 02:16:00;;;;;;;;;;;;;;;22.96;69.16;96790.33;218854;264;192916;-55
2021/08/22 02:17:02;;;;;;;;;;;;;;;22.94;69.73;96790.68;219056;264;97907;-53
2021/08/22 02:18:03;;;;;;;;;;;;;;;22.93;69.29;96786.31;218936;264;98941;-56
2021/08/22 02:19:04;;;;;;;;;;;;;;;22.93;69.31;96788.27;219511;264;98962;-51
2021/08/22 02:20:06;;;;;;;;;;;;;;;22.91;69.62;96788.62;218197;264;99043;-55
2021/08/22 02:21:07;;;;;;;;;;;;;;;22.94;69.26;96786.53;218708;266;97969;-56
2021/08/22 02:22:08;;;;;;;;;;;;;;;22.94;69.30;96783.77;218497;266;98016;-53
2021/08/22 02:23:10;;;;;;;;;;;;;;;22.92;69.24;96787.47;217683;266;97896;-52
2021/08/22 02:24:11;;;;;;;;;;;;;;;22.96;69.16;96781.46;218565;266;98062;-52
2021/08/22 02:25:12;;;;;;;;;;;;;;;22.96;69.43;96776.51;218275;266;98945;-58
2021/08/22 02:26:14;;;;;;;;;;;;;;;22.95;69.30;96775.70;218733;266;98986;-54
2021/08/22 02:27:15;;;;;;;;;;;;;;;22.94;69.31;96774.09;218476;266;98870;-57
2021/08/22 02:28:16;;;;;;;;;;;;;;;22.94;69.24;96770.53;218644;266;97979;-55
2021/08/22 02:29:18;;;;;;;;;;;;;;;22.92;69.31;96773.65;218529;264;98016;-56
2021/08/22 02:30:19;;;;;;;;;;;;;;;22.90;69.42;96773.20;218121;264;97986;-55
2021/08/22 02:31:20;;;;;;;;;;;;;;;22.89;69.45;96772.97;218689;266;99050;-53
2021/08/22 02:32:22;;;;;;;;;;;;;;;22.93;69.17;96768.92;218469;266;98970;-48
2021/08/22 02:33:24;;;;;;;;;;;;;;;22.93;69.27;96769.73;218628;266;98936;-52
2021/08/22 02:34:26;;;;;;;;;;;;;;;22.92;69.35;96766.74;218552;266;69044;-58
2021/08/22 02:35:27;;;;;;;;;;;;;;;22.92;69.26;96765.94;217967;265;276165;-55
2021/08/22 02:36:29;;;;;;;;;;;;;;;22.93;69.43;96772.49;218657;265;195347;-56
2021/08/22 02:37:30;;;;;;;;;;;;;;;22.92;69.24;96765.36;219355;264;193790;-54
2021/08/22 02:38:31;;;;;;;;;;;;;;;22.93;69.14;96769.73;219096;264;99856;-55
2021/08/22 02:39:33;;;;;;;;;;;;;;;22.97;69.09;96766.52;219013;264;99006;-47
2021/08/22 02:40:34;;;;;;;;;;;;;;;22.94;69.47;96771.91;219004;264;98881;-52
2021/08/22 02:41:35;;;;;;;;;;;;;;;22.92;69.44;96769.50;219101;264;98923;-53
2021/08/22 02:42:37;;;;;;;;;;;;;;;22.91;69.29;96769.28;221425;261;98962;-53
2021/08/22 02:43:38;;;;;;;;;;;;;;;22.94;69.19;96764.42;219201;264;98959;-54
2021/08/22 02:44:39;;;;;;;;;;;;;;;22.98;69.07;96765.94;219498;264;98968;-52
2021/08/22 02:45:41;;;;;;;;;;;;;;;22.95;69.06;96762.47;219756;264;97695;-53
2021/08/22 02:46:42;;;;;;;;;;;;;;;22.93;69.09;96762.81;219617;264;100330;-53
2021/08/22 02:47:43;;;;;;;;;;;;;;;22.92;69.13;96757.64;219693;264;98920;-57
2021/08/22 02:48:45;;;;;;;;;;;;;;;22.96;69.08;96757.97;219612;264;98958;-54
2021/08/22 02:49:46;;;;;;;;;;;;;;;22.97;68.99;96756.84;219181;264;99008;-50
2021/08/22 02:50:47;;;;;;;;;;;;;;;22.97;69.11;96752.70;218109;264;98933;-50
2021/08/22 02:51:49;;;;;;;;;;;;;;;22.97;69.11;96750.51;217614;266;97971;-51
2021/08/22 02:52:50;;;;;;;;;;;;;;;22.95;69.14;96752.80;218315;266;98049;-56
2021/08/22 02:53:51;;;;;;;;;;;;;;;22.96;69.10;96749.67;219150;264;98924;-48
2021/08/22 02:54:53;;;;;;;;;;;;;;;22.94;69.19;96751.98;219492;264;98912;-56
2021/08/22 02:55:54;;;;;;;;;;;;;;;22.92;69.22;96757.06;218352;264;99463;-55
2021/08/22 02:56:55;;;;;;;;;;;;;;;22.91;69.12;96749.94;220394;263;98938;-50
2021/08/22 02:57:57;;;;;;;;;;;;;;;22.91;69.17;96743.02;218173;265;97922;-49
2021/08/22 02:58:59;;;;;;;;;;;;;;;22.94;69.18;96751.98;217366;266;97747;-53
2021/08/22 03:00:00;;;;;;;;;;;;;;;22.96;69.06;96745.53;217836;265;98872;-48
2021/08/22 03:01:01;;;;;;;;;;;;;;;22.96;69.06;96748.30;218067;265;98958;-56
2021/08/22 03:02:03;;;;;;;;;;;;;;;22.94;69.19;96747.84;218348;266;99077;-51
2021/08/22 03:03:04;;;;;;;;;;;;;;;22.94;69.17;96751.98;219453;264;98954;-50
2021/08/22 03:04:05;;;;;;;;;;;;;;;22.96;69.03;96747.48;219807;264;98959;-50
2021/08/22 03:05:07;;;;;;;;;;;;;;;22.98;69.01;96741.87;219464;264;98076;-48
2021/08/22 03:06:08;;;;;;;;;;;;;;;22.96;69.36;96742.77;219490;264;193411;-48
2021/08/22 03:07:09;;;;;;;;;;;;;;;22.99;69.22;96735.76;219820;264;98058;-55
2021/08/22 03:08:11;;;;;;;;;;;;;;;22.98;69.22;96739.10;218561;264;99025;-48
2021/08/22 03:09:12;;;;;;;;;;;;;;;22.94;69.55;96732.64;219861;264;98935;-53
2021/08/22 03:10:14;;;;;;;;;;;;;;;22.97;69.20;96732.55;218745;264;98959;-52
2021/08/22 03:11:15;;;;;;;;;;;;;;;22.97;69.13;96730.59;219568;264;99002;-50
2021/08/22 03:12:17;;;;;;;;;;;;;;;22.98;69.14;96725.86;219025;264;99016;-49
2021/08/22 03:13:18;;;;;;;;;;;;;;;22.96;69.25;96728.14;220496;261;193909;-50
2021/08/22 03:14:19;;;;;;;;;;;;;;;22.94;69.18;96728.50;220848;263;98949;-50
2021/08/22 03:15:21;;;;;;;;;;;;;;;22.94;69.15;96728.50;220317;263;96963;-52
2021/08/22 03:16:22;;;;;;;;;;;;;;;22.95;69.23;96725.16;219466;264;98986;-50
2021/08/22 03:17:23;;;;;;;;;;;;;;;22.96;69.07;96724.80;219233;264;98963;-49
2021/08/22 03:18:25;;;;;;;;;;;;;;;22.98;69.21;96730.81;219542;264;98926;-50
2021/08/22 03:19:26;;;;;;;;;;;;;;;22.96;69.36;96726.77;219393;263;98929;-54
2021/08/22 03:20:28;;;;;;;;;;;;;;;22.97;69.08;96722.87;219288;264;99457;-48
2021/08/22 03:21:30;;;;;;;;;;;;;;;22.96;69.35;96724.80;219397;264;98970;-50
2021/08/22 03:22:31;;;;;;;;;;;;;;;22.95;69.43;96725.95;219361;264;98040;-49
2021/08/22 03:23:32;;;;;;;;;;;;;;;22.94;69.40;96717.44;219633;264;98015;-53
2021/08/22 03:24:34;;;;;;;;;;;;;;;22.94;69.27;96726.31;219051;264;99116;-48
2021/08/22 03:25:35;;;;;;;;;;;;;;;22.95;69.15;96725.95;218352;265;100463;-48
2021/08/22 03:26:36;;;;;;;;;;;;;;;22.98;68.98;96722.52;218164;265;194830;-50
2021/08/22 03:27:38;;;;;;;;;;;;;;;22.98;69.02;96721.72;218628;264;193319;-50
2021/08/22 03:28:39;;;;;;;;;;;;;;;22.98;69.08;96721.72;219113;264;98972;-48
2021/08/22 03:29:40;;;;;;;;;;;;;;;22.99;69.15;96728.84;218455;263;98096;-52
2021/08/22 03:30:42;;;;;;;;;;;;;;;23.00;69.07;96720.20;219239;265;98127;-53
2021/08/22 03:31:43;;;;;;;;;;;;;;;22.99;69.08;96719.17;220269;263;98970;-52
2021/08/22 03:32:44;;;;;;;;;;;;;;;22.97;69.04;96714.58;218924;265;99457;-52
2021/08/22 03:33:46;;;;;;;;;;;;;;;22.97;69.27;96718.15;218920;265;99033;-50
2021/08/22 03:34:47;;;;;;;;;;;;;;;22.96;69.17;96713.75;219727;263;98935;-49
2021/08/22 03:35:48;;;;;;;;;;;;;;;22.96;69.20;96710.18;220209;263;98958;-51
2021/08/22 03:36:50;;;;;;;;;;;;;;;23.00;69.18;96716.64;218716;264;97890;-51
2021/08/22 03:37:51;;;;;;;;;;;;;;;22.98;68.99;96707.89;218897;265;98988;-56
2021/08/22 03:38:53;;;;;;;;;;;;;;;23.00;68.97;96711.91;219255;264;99012;-53
2021/08/22 03:39:54;;;;;;;;;;;;;;;22.99;69.01;96708.92;218664;265;98973;-53
2021/08/22 03:40:55;;;;;;;;;;;;;;;22.98;69.01;96707.31;218564;266;98863;-52
2021/08/22 03:41:57;;;;;;;;;;;;;;;23.00;69.00;96710.53;217992;266;193477;-49
2021/08/22 03:42:58;;;;;;;;;;;;;;;22.96;69.02;96708.22;218167;266;98092;-48
2021/08/22 03:43:59;;;;;;;;;;;;;;;22.98;68.90;96714.23;217923;265;100285;-51
2021/08/22 03:45:01;;;;;;;;;;;;;;;22.98;69.00;96713.42;220100;263;98940;-52
2021/08/22 03:46:02;;;;;;;;;;;;;;;22.98;68.93;96710.08;218680;265;98974;-52
2021/08/22 03:47:03;;;;;;;;;;;;;;;22.99;68.94;96710.88;219287;264;98950;-49
2021/08/22 03:48:05;;;;;;;;;;;;;;;23.02;69.03;96715.13;219015;264;97973;-53
2021/08/22 03:49:06;;;;;;;;;;;;;;;22.99;68.90;96713.06;218794;264;98020;-51
2021/08/22 03:50:07;;;;;;;;;;;;;;;23.02;68.93;96710.17;220183;263;98533;-49
2021/08/22 03:51:09;;;;;;;;;;;;;;;23.04;68.89;96712.80;217411;266;98943;-53
2021/08/22 03:52:10;;;;;;;;;;;;;;;23.00;68.92;96711.91;218110;266;98968;-52
2021/08/22 03:53:11;;;;;;;;;;;;;;;22.99;69.00;96713.06;218125;266;100231;-50
2021/08/22 03:54:13;;;;;;;;;;;;;;;22.99;69.07;96709.50;219397;264;97912;-50
2021/08/22 03:55:14;;;;;;;;;;;;;;;23.00;69.07;96706.38;219542;263;98010;-49
2021/08/22 03:56:20;;;;;;;;;;;;;;;23.01;69.06;96712.14;217879;264;97942;-52
2021/08/22 03:57:21;;;;;;;;;;;;;;;22.98;69.39;96707.31;218585;265;68688;-58
2021/08/22 03:58:22;;;;;;;;;;;;;;;22.97;69.16;96709.86;218315;265;192152;-49
2021/08/22 03:59:27;;;;;;;;;;;;;;;22.98;69.08;96708.70;218289;264;98960;-53
2021/08/22 04:00:28;;;;;;;;;;;;;;;23.00;69.11;96707.77;217657;265;98947;-58
2021/08/22 04:01:29;;;;;;;;;;;;;;;23.00;69.32;96702.23;220744;262;99397;-50
2021/08/22 04:02:31;;;;;;;;;;;;;;;22.99;69.10;96702.02;220320;263;190345;-48
2021/08/22 04:03:32;;;;;;;;;;;;;;;23.00;69.07;96703.62;218596;265;277282;-47
2021/08/22 04:04:34;;;;;;;;;;;;;;;22.99;69.21;96702.02;219029;264;194481;-52
2021/08/22 04:05:37;;;;;;;;;;;;;;;22.96;69.54;96706.84;219162;264;191722;-47
2021/08/22 04:06:46;;;;;;;;;;;;;;;22.94;69.52;96702.24;218858;265;99004;-46
2021/08/22 04:07:47;;;;;;;;;;;;;;;22.96;69.66;96705.45;218477;265;67592;-54
2021/08/22 04:08:44;;;;;;;;;;;;;;;22.96;69.36;96704.08;218187;265;67579;-51
2021/08/22 04:09:45;;;;;;;;;;;;;;;22.97;69.36;96703.53;218431;263;98054;-49
2021/08/22 04:10:47;;;;;;;;;;;;;;;22.97;69.28;96698.80;219073;264;98121;-50
2021/08/22 04:11:48;;;;;;;;;;;;;;;22.98;69.07;96696.84;219003;264;97061;-51
2021/08/22 04:12:49;;;;;;;;;;;;;;;22.97;69.08;96700.19;219199;264;98985;-54
2021/08/22 04:13:51;;;;;;;;;;;;;;;22.98;69.02;96700.41;217803;265;194897;-51
2021/08/22 04:14:52;;;;;;;;;;;;;;;23.02;69.01;96700.50;218259;264;193499;-45
2021/08/22 04:15:53;;;;;;;;;;;;;;;23.01;69.13;96702.46;218082;266;98942;-58
2021/08/22 04:16:55;;;;;;;;;;;;;;;23.02;68.95;96702.69;219269;263;98115;-53
2021/08/22 04:17:56;;;;;;;;;;;;;;;23.01;69.03;96703.84;217631;265;98004;-54
2021/08/22 04:18:57;;;;;;;;;;;;;;;22.99;69.03;96701.21;218204;265;99509;-48
2021/08/22 04:19:59;;;;;;;;;;;;;;;22.99;68.99;96707.54;218597;264;99052;-55
2021/08/22 04:21:00;;;;;;;;;;;;;;;23.00;69.01;96706.38;218378;265;99014;-53
2021/08/22 04:22:01;;;;;;;;;;;;;;;23.01;68.93;96706.61;218167;266;98973;-52
2021/08/22 04:23:04;;;;;;;;;;;;;;;23.03;69.04;96710.40;218311;264;98974;-50
2021/08/22 04:24:06;;;;;;;;;;;;;;;23.04;69.06;96705.89;218162;266;98962;-52
2021/08/22 04:25:07;;;;;;;;;;;;;;;23.03;68.99;96704.88;218155;264;98941;-52
2021/08/22 04:26:08;;;;;;;;;;;;;;;23.03;68.99;96704.88;217873;265;99549;-49
2021/08/22 04:27:10;;;;;;;;;;;;;;;23.03;68.89;96699.34;218639;265;275865;-55
2021/08/22 04:28:11;;;;;;;;;;;;;;;23.02;68.87;96702.69;216363;266;195485;-55
2021/08/22 04:29:12;;;;;;;;;;;;;;;23.05;68.81;96710.27;217485;266;193247;-51
2021/08/22 04:30:14;;;;;;;;;;;;;;;23.03;68.89;96701.53;217405;267;97857;-55
2021/08/22 04:31:15;;;;;;;;;;;;;;;23.04;68.96;96707.28;217324;266;99481;-49
2021/08/22 04:32:18;;;;;;;;;;;;;;;23.04;69.23;96697.60;220003;264;98972;-52
2021/08/22 04:33:19;;;;;;;;;;;;;;;23.02;69.13;96702.69;218727;265;66751;-53
2021/08/22 04:34:21;;;;;;;;;;;;;;;23.03;69.14;96702.11;220122;262;274657;-54
2021/08/22 04:35:23;;;;;;;;;;;;;;;22.99;69.22;96696.48;219217;264;195582;-54
2021/08/22 04:36:24;;;;;;;;;;;;;;;22.99;69.39;96695.69;220577;262;193255;-49
2021/08/22 04:37:25;;;;;;;;;;;;;;;22.98;69.26;96696.84;219072;265;98003;-54
2021/08/22 04:38:27;;;;;;;;;;;;;;;23.00;69.32;96696.70;219350;264;99588;-49
2021/08/22 04:39:28;;;;;;;;;;;;;;;23.02;69.04;96694.97;219615;263;98962;-52
2021/08/22 04:40:29;;;;;;;;;;;;;;;23.05;69.07;96696.45;220487;262;98946;-52
2021/08/22 04:41:31;;;;;;;;;;;;;;;23.05;69.10;96695.64;219741;263;99039;-53
2021/08/22 04:42:32;;;;;;;;;;;;;;;23.02;69.25;96697.16;220665;262;98973;-48
2021/08/22 04:43:33;;;;;;;;;;;;;;;23.04;69.21;96689.89;218010;265;97981;-50
2021/08/22 04:44:35;;;;;;;;;;;;;;;23.03;69.16;96692.43;216419;267;98006;-47
2021/08/22 04:45:36;;;;;;;;;;;;;;;23.05;69.27;96695.64;216909;266;100256;-54
2021/08/22 04:46:37;;;;;;;;;;;;;;;23.06;69.37;96704.97;219067;265;100236;-49
2021/08/22 04:47:39;;;;;;;;;;;;;;;23.06;69.62;96694.48;218625;265;99040;-48
2021/08/22 04:48:40;;;;;;;;;;;;;;;23.05;69.53;96695.64;218772;265;98974;-52
2021/08/22 04:49:41;;;;;;;;;;;;;;;23.06;69.37;96696.67;217954;264;97976;-47
2021/08/22 04:50:43;;;;;;;;;;;;;;;23.07;69.41;96694.70;218011;265;98132;-51
2021/08/22 04:51:44;;;;;;;;;;;;;;;23.04;69.70;96698.98;219199;265;98031;-51
2021/08/22 04:52:45;;;;;;;;;;;;;;;23.04;69.46;96697.60;217799;266;98941;-55
2021/08/22 04:53:47;;;;;;;;;;;;;;;23.02;69.46;96695.78;218939;265;99043;-55
2021/08/22 04:54:48;;;;;;;;;;;;;;;23.03;69.71;96694.62;218823;264;98966;-52
2021/08/22 04:55:49;;;;;;;;;;;;;;;23.01;69.54;96696.94;219447;264;97921;-51
2021/08/22 04:56:51;;;;;;;;;;;;;;;23.00;69.54;96697.29;218132;266;98167;-51
2021/08/22 04:57:52;;;;;;;;;;;;;;;23.05;69.34;96697.03;216884;265;98032;-50
2021/08/22 04:58:53;;;;;;;;;;;;;;;23.07;69.31;96697.47;219703;264;97066;-46
2021/08/22 04:59:55;;;;;;;;;;;;;;;23.08;69.33;96694.39;219387;263;98145;-53
2021/08/22 05:00:56;;;;;;;;;;;;;;;23.08;69.40;96694.96;218252;265;98033;-53
2021/08/22 05:01:57;;;;;;;;;;;;;;;23.05;69.19;96695.06;220890;262;97591;-48
2021/08/22 05:03:00;;;;;;;;;;;;;;;23.04;69.28;96695.42;219648;264;99080;-50
2021/08/22 05:04:02;;;;;;;;;;;;;;;23.04;69.43;96698.19;218509;263;160105;-47
2021/08/22 05:05:03;;;;;;;;;;;;;;;23.03;69.45;96700.14;217476;266;193457;-50
2021/08/22 05:06:04;;;;;;;;;;;;;;;23.04;69.38;96694.84;218989;265;98021;-53
2021/08/22 05:07:06;;;;;;;;;;;;;;;23.07;69.19;96692.78;221106;262;99530;-54
2021/08/22 05:08:07;;;;;;;;;;;;;;;23.03;69.58;96689.09;218973;265;98982;-51
2021/08/22 05:09:08;;;;;;;;;;;;;;;23.05;69.29;96695.06;219519;264;98930;-48
2021/08/22 05:10:10;;;;;;;;;;;;;;;23.06;69.38;96696.67;219890;263;98086;-50
2021/08/22 05:11:11;;;;;;;;;;;;;;;23.08;69.26;96694.39;218155;265;98071;-52
2021/08/22 05:12:12;;;;;;;;;;;;;;;23.09;69.10;96693.23;219088;264;97529;-54
2021/08/22 05:13:14;;;;;;;;;;;;;;;23.06;69.19;96696.67;219563;264;98093;-47
2021/08/22 05:14:15;;;;;;;;;;;;;;;23.12;69.31;96701.97;219329;264;100216;-48
2021/08/22 05:15:16;;;;;;;;;;;;;;;23.09;69.15;96705.67;220844;262;98923;-57
2021/08/22 05:16:18;;;;;;;;;;;;;;;23.06;69.21;96704.97;219104;265;98839;-51
2021/08/22 05:17:19;;;;;;;;;;;;;;;23.05;69.29;96702.55;217472;267;98026;-51
2021/08/22 05:18:20;;;;;;;;;;;;;;;23.05;69.13;96706.13;217274;265;98025;-49
2021/08/22 05:19:22;;;;;;;;;;;;;;;23.07;69.28;96706.60;216545;267;194602;-55